Time;durP1;ratioP1;P1;durP2;ratioP2;P2;SDS_P1;SDS_P2;PMS_P1;PMS_P2;Temp;Humidity;BMP_temperature;BMP_pressure;BME280_temperature;BME280_humidity;BME280_pressure;Samples;Min_cycle;Max_cycle;Signal;HPM_P1;HPM_P2
2022/08/05 00:01:39;;;;;;;9.80;8.90;;;19.30;99.90;;;;;;5049812;28;20183;-67
2022/08/05 00:04:05;;;;;;;9.23;8.37;;;19.30;99.90;;;;;;5066358;28;20295;-67
2022/08/05 00:06:31;;;;;;;9.90;8.90;;;19.30;99.90;;;;;;5051338;28;20179;-67
2022/08/05 00:08:56;;;;;;;9.97;9.07;;;19.30;99.90;;;;;;5051205;28;20175;-67
2022/08/05 00:11:22;;;;;;;9.70;8.70;;;19.30;99.90;;;;;;5051403;28;20178;-67
2022/08/05 00:13:48;;;;;;;9.87;8.83;;;19.20;99.90;;;;;;5065972;28;20567;-67
2022/08/05 00:16:14;;;;;;;9.53;8.67;;;19.20;99.90;;;;;;5051252;28;20189;-67
2022/08/05 00:18:46;;;;;;;8.93;7.90;;;19.20;99.90;;;;;;5051052;28;20190;-67
2022/08/05 00:21:13;;;;;;;9.40;8.50;;;19.20;99.90;;;;;;5051493;28;20178;-67
2022/08/05 00:23:39;;;;;;;14.03;9.13;;;19.10;99.90;;;;;;5050491;28;20214;-67
2022/08/05 00:26:06;;;;;;;10.87;9.97;;;19.00;99.90;;;;;;5050390;28;20202;-67
2022/08/05 00:28:32;;;;;;;9.47;8.43;;;18.90;99.90;;;;;;5051130;28;20182;-67
2022/08/05 00:30:58;;;;;;;9.10;8.30;;;18.90;99.90;;;;;;5050634;28;20183;-67
2022/08/05 00:33:23;;;;;;;9.00;8.17;;;18.90;99.90;;;;;;5050776;28;20202;-67
2022/08/05 00:35:49;;;;;;;10.63;8.30;;;18.90;99.90;;;;;;5050666;28;20249;-67
2022/08/05 00:38:15;;;;;;;9.57;7.77;;;18.90;99.90;;;;;;5050963;28;20183;-67
2022/08/05 00:40:49;;;;;;;11.43;8.57;;;18.80;99.90;;;;;;5066400;28;20635;-67
2022/08/05 00:43:15;;;;;;;11.77;8.20;;;18.70;99.90;;;;;;5049568;28;20249;-67
2022/08/05 00:45:42;;;;;;;9.20;7.97;;;18.70;99.90;;;;;;5049557;28;20210;-67
2022/08/05 00:48:09;;;;;;;9.27;8.30;;;18.70;99.90;;;;;;5050692;28;20588;-66
2022/08/05 00:50:35;;;;;;;8.73;8.03;;;18.70;99.90;;;;;;5049449;28;20253;-66
2022/08/05 00:53:01;;;;;;;8.97;8.07;;;18.60;99.90;;;;;;5050390;28;20206;-66
2022/08/05 00:55:27;;;;;;;9.70;8.57;;;18.60;99.90;;;;;;5049628;28;20709;-67
2022/08/05 00:57:52;;;;;;;10.03;9.10;;;18.60;99.90;;;;;;5048889;28;20236;-67
2022/08/05 01:00:18;;;;;;;10.90;9.10;;;18.60;99.90;;;;;;5065346;28;20278;-67
2022/08/05 01:02:43;;;;;;;10.67;8.73;;;18.50;99.90;;;;;;5050330;28;20218;-66
2022/08/05 01:05:09;;;;;;;10.70;9.00;;;18.50;99.90;;;;;;5050300;28;20258;-66
2022/08/05 01:07:35;;;;;;;9.27;8.37;;;18.50;99.90;;;;;;5050587;28;20281;-66
2022/08/05 01:10:01;;;;;;;12.77;8.47;;;18.50;99.90;;;;;;5049216;28;20580;-67
2022/08/05 01:12:27;;;;;;;8.83;7.93;;;18.50;99.90;;;;;;5050298;28;20228;-66
2022/08/05 01:15:04;;;;;;;8.90;8.07;;;18.40;99.90;;;;;;5065624;28;20190;-66
2022/08/05 01:17:51;;;;;;;9.97;8.97;;;18.40;99.90;;;;;;5050678;28;20182;-67
2022/08/05 01:20:30;;;;;;;11.73;9.07;;;18.40;99.90;;;;;;5050588;28;20228;-67
2022/08/05 01:23:14;;;;;;;12.40;9.77;;;18.40;99.90;;;;;;5065741;28;20225;-66
2022/08/05 01:26:12;;;;;;;10.63;9.63;;;18.40;99.90;;;;;;5059014;28;20202;-66
2022/08/05 01:28:40;;;;;;;10.67;9.67;;;18.40;99.90;;;;;;5043464;28;20186;-66
2022/08/05 01:31:34;;;;;;;12.10;9.90;;;18.40;99.90;;;;;;5065831;28;20261;-67
2022/08/05 01:34:21;;;;;;;10.97;9.83;;;18.40;99.90;;;;;;5047735;28;20664;-66
2022/08/05 01:36:55;;;;;;;10.87;9.83;;;18.40;99.90;;;;;;5051599;28;20183;-66
2022/08/05 01:39:21;;;;;;;10.70;8.90;;;18.40;99.90;;;;;;5054017;28;20179;-67
2022/08/05 01:41:48;;;;;;;12.90;9.13;;;18.40;99.90;;;;;;5052741;28;20213;-66
2022/08/05 01:44:15;;;;;;;12.07;9.30;;;18.40;99.90;;;;;;5053237;28;20284;-67
2022/08/05 01:46:43;;;;;;;12.27;9.90;;;18.40;99.90;;;;;;5054196;28;20179;-67
2022/08/05 01:49:12;;;;;;;16.77;12.40;;;18.50;99.90;;;;;;5052531;28;20174;-66
2022/08/05 01:51:39;;;;;;;13.70;10.80;;;18.50;99.90;;;;;;5052511;28;20265;-66
2022/08/05 01:54:08;;;;;;;16.10;10.80;;;18.50;99.90;;;;;;5053205;28;20202;-66
2022/08/05 01:56:38;;;;;;;13.20;11.93;;;18.50;99.90;;;;;;5052365;28;20182;-66
2022/08/05 01:59:07;;;;;;;12.13;10.93;;;18.50;99.90;;;;;;5054224;28;20224;-66
2022/08/05 02:01:34;;;;;;;12.93;11.57;;;18.50;99.90;;;;;;5053348;28;20648;-66
2022/08/05 02:04:01;;;;;;;13.13;11.60;;;18.50;99.90;;;;;;5053282;28;20226;-66
2022/08/05 02:06:27;;;;;;;14.77;13.13;;;18.60;99.90;;;;;;5052249;28;20194;-66
2022/08/05 02:08:53;;;;;;;14.00;12.40;;;18.50;99.90;;;;;;5052220;28;20179;-67
2022/08/05 02:11:20;;;;;;;14.53;12.40;;;18.50;99.90;;;;;;5053537;28;20191;-67
2022/08/05 02:14:01;;;;;;;12.57;11.27;;;18.50;99.90;;;;;;5053422;28;20249;-67
2022/08/05 02:16:33;;;;;;;13.73;12.27;;;18.60;99.90;;;;;;5053637;28;20273;-66
2022/08/05 02:19:04;;;;;;;14.20;11.07;;;18.60;99.90;;;;;;5045916;28;20270;-66
2022/08/05 02:21:35;;;;;;;12.73;11.27;;;18.60;99.90;;;;;;5053296;28;20187;-66
2022/08/05 02:24:09;;;;;;;13.23;11.83;;;18.60;99.90;;;;;;5051637;28;20201;-67
2022/08/05 02:26:45;;;;;;;14.03;11.60;;;18.60;99.90;;;;;;5052889;28;20190;-66
2022/08/05 02:29:12;;;;;;;13.40;11.57;;;18.60;99.90;;;;;;5053558;28;20174;-66
2022/08/05 02:31:39;;;;;;;17.13;12.60;;;18.60;99.90;;;;;;5051615;28;20178;-66
2022/08/05 02:34:07;;;;;;;12.33;10.73;;;18.60;99.90;;;;;;5052828;28;20187;-67
2022/08/05 02:36:36;;;;;;;12.90;11.00;;;18.50;99.90;;;;;;5053191;28;20200;-67
2022/08/05 02:39:04;;;;;;;12.60;10.77;;;18.40;99.90;;;;;;5051942;28;20167;-68
2022/08/05 02:41:32;;;;;;;17.30;14.97;;;18.20;99.90;;;;;;5068420;28;20182;-68
2022/08/05 02:43:59;;;;;;;31.43;29.17;;;18.20;99.90;;;;;;5067745;28;20667;-69
2022/08/05 02:46:27;;;;;;;18.10;13.70;;;18.10;99.90;;;;;;5052983;28;20174;-70
2022/08/05 02:48:54;;;;;;;41.30;37.00;;;18.00;99.90;;;;;;5052146;28;20574;-69
2022/08/05 02:51:20;;;;;;;276.77;55.27;;;18.10;99.90;;;;;;5051470;28;20666;-70
2022/08/05 02:53:47;;;;;;;306.33;51.40;;;18.10;99.90;;;;;;5051906;28;20209;-70
2022/08/05 02:56:14;;;;;;;22.80;15.13;;;18.10;99.90;;;;;;5051145;28;20761;-70
2022/08/05 02:58:40;;;;;;;156.80;24.03;;;18.00;99.90;;;;;;5052501;28;20174;-69
2022/08/05 03:01:09;;;;;;;19.57;16.17;;;18.10;99.90;;;;;;5067686;28;20560;-69
2022/08/05 03:03:39;;;;;;;56.00;16.43;;;17.90;99.90;;;;;;5050730;28;20605;-68
2022/08/05 03:06:06;;;;;;;79.90;20.27;;;17.90;99.90;;;;;;5052213;28;20182;-67
2022/08/05 03:08:33;;;;;;;151.63;28.60;;;17.90;99.90;;;;;;5052367;28;20225;-68
2022/08/05 03:10:59;;;;;;;30.63;18.17;;;18.00;99.90;;;;;;5052192;28;20225;-68
2022/08/05 03:13:24;;;;;;;21.90;19.03;;;18.00;99.90;;;;;;5052231;28;20254;-67
2022/08/05 03:15:50;;;;;;;27.63;18.60;;;18.00;99.90;;;;;;5051872;28;20183;-68
2022/08/05 03:18:16;;;;;;;25.83;21.47;;;18.00;99.90;;;;;;5050926;28;20704;-68
2022/08/05 03:20:41;;;;;;;22.97;20.53;;;18.00;99.90;;;;;;5050801;28;20182;-68
2022/08/05 03:23:09;;;;;;;25.07;18.70;;;18.10;99.90;;;;;;5051934;28;20210;-68
2022/08/05 03:25:36;;;;;;;29.97;19.93;;;18.10;99.90;;;;;;5050507;28;20524;-68
2022/08/05 03:28:04;;;;;;;25.40;20.20;;;18.10;99.90;;;;;;5050508;28;20175;-68
2022/08/05 03:30:33;;;;;;;24.90;19.47;;;18.20;99.90;;;;;;5067079;28;20174;-68
2022/08/05 03:33:03;;;;;;;32.83;20.40;;;18.30;99.90;;;;;;5050489;28;20202;-68
2022/08/05 03:35:29;;;;;;;27.37;22.13;;;18.30;99.90;;;;;;5050262;28;20186;-68
2022/08/05 03:37:56;;;;;;;28.53;20.47;;;18.30;99.90;;;;;;5050299;28;20185;-68
2022/08/05 03:40:22;;;;;;;25.13;18.80;;;18.30;99.90;;;;;;5043072;28;20211;-68
2022/08/05 03:42:48;;;;;;;23.73;18.60;;;18.30;99.90;;;;;;5066739;28;20718;-68
2022/08/05 03:45:13;;;;;;;27.00;20.40;;;18.30;99.90;;;;;;5051403;28;20232;-68
2022/08/05 03:47:39;;;;;;;27.00;20.53;;;18.40;99.90;;;;;;5051543;28;20266;-68
2022/08/05 03:50:05;;;;;;;26.70;20.27;;;18.40;99.90;;;;;;5050132;28;20228;-68
2022/08/05 03:52:36;;;;;;;30.23;21.10;;;18.50;99.90;;;;;;5051591;28;20179;-68
2022/08/05 03:55:09;;;;;;;28.33;20.17;;;18.50;99.90;;;;;;5050061;28;20179;-68
2022/08/05 03:57:38;;;;;;;29.77;21.53;;;18.40;99.90;;;;;;5051532;28;20183;-67
2022/08/05 04:00:09;;;;;;;36.57;22.53;;;18.50;99.90;;;;;;5049107;28;20265;-68
2022/08/05 04:02:37;;;;;;;33.57;22.73;;;18.50;99.90;;;;;;5066519;28;20210;-68
2022/08/05 04:05:04;;;;;;;30.87;23.20;;;18.60;99.90;;;;;;5066272;28;20175;-67
2022/08/05 04:07:32;;;;;;;29.53;23.57;;;18.70;99.90;;;;;;5043597;28;20189;-68
2022/08/05 04:09:59;;;;;;;33.77;24.37;;;18.70;99.90;;;;;;5050030;28;20171;-68
2022/08/05 04:12:24;;;;;;;31.97;24.73;;;18.70;99.90;;;;;;5049846;28;20194;-68
2022/08/05 04:14:51;;;;;;;32.67;25.20;;;18.80;99.90;;;;;;5050735;28;20187;-68
2022/08/05 04:17:17;;;;;;;35.90;27.13;;;18.80;99.90;;;;;;5050811;28;20202;-68
2022/08/05 04:19:47;;;;;;;37.97;28.10;;;18.80;99.90;;;;;;5051189;28;20217;-68
2022/08/05 04:22:13;;;;;;;35.77;29.07;;;18.90;99.90;;;;;;5049473;28;20248;-67
2022/08/05 04:24:43;;;;;;;36.97;26.13;;;18.90;99.90;;;;;;5050604;28;20167;-68
2022/08/05 04:27:09;;;;;;;39.23;26.17;;;18.90;99.90;;;;;;5049572;28;20194;-68
2022/08/05 04:29:35;;;;;;;38.83;28.23;;;19.00;99.90;;;;;;5050898;28;20222;-68
2022/08/05 04:32:01;;;;;;;37.67;25.87;;;18.90;99.90;;;;;;5049725;28;20739;-68
2022/08/05 04:34:27;;;;;;;49.20;25.87;;;18.80;99.90;;;;;;5066217;22;20295;-66
2022/08/05 04:36:52;;;;;;;38.83;23.40;;;18.80;99.90;;;;;;5065229;28;20378;-66
2022/08/05 04:39:18;;;;;;;33.53;22.17;;;18.90;99.90;;;;;;5070804;28;20174;-65
2022/08/05 04:41:45;;;;;;;34.87;22.17;;;18.80;99.90;;;;;;5069579;28;20178;-66
2022/08/05 04:44:11;;;;;;;36.63;23.23;;;18.70;99.90;;;;;;5070794;28;20528;-66
2022/08/05 04:46:37;;;;;;;42.07;22.83;;;18.60;99.90;;;;;;5071128;28;20184;-64
2022/08/05 04:49:03;;;;;;;40.73;25.17;;;18.50;99.90;;;;;;5071296;28;20179;-65
2022/08/05 04:51:28;;;;;;;39.17;23.50;;;18.50;99.90;;;;;;5071153;28;20185;-66
2022/08/05 04:53:54;;;;;;;43.17;25.70;;;18.50;99.90;;;;;;5070780;28;20209;-66
2022/08/05 04:56:19;;;;;;;41.23;25.10;;;18.50;99.90;;;;;;5070895;28;20569;-66
2022/08/05 04:58:45;;;;;;;40.10;24.33;;;18.40;99.90;;;;;;5070978;28;20174;-65
2022/08/05 05:01:11;;;;;;;47.83;27.80;;;18.50;99.90;;;;;;5071048;28;20174;-66
2022/08/05 05:03:36;;;;;;;46.60;27.50;;;18.60;99.90;;;;;;5070440;28;20702;-66
2022/08/05 05:06:02;;;;;;;41.70;28.73;;;18.70;99.90;;;;;;5070919;28;20182;-66
2022/08/05 05:08:27;;;;;;;54.27;29.47;;;18.70;99.90;;;;;;5070949;28;20186;-66
2022/08/05 05:10:54;;;;;;;58.87;29.20;;;18.80;99.90;;;;;;5072103;28;20178;-66
2022/08/05 05:13:20;;;;;;;59.10;28.50;;;18.80;99.90;;;;;;5073458;28;20175;-63
2022/08/05 05:15:46;;;;;;;64.00;30.43;;;18.80;99.90;;;;;;5074335;28;20197;-67
2022/08/05 05:18:14;;;;;;;66.53;30.47;;;18.80;99.90;;;;;;5074653;28;20170;-65
2022/08/05 05:20:42;;;;;;;63.30;28.47;;;18.80;99.90;;;;;;5074396;28;20547;-67
2022/08/05 05:23:07;;;;;;;63.30;29.03;;;18.80;99.90;;;;;;5074870;28;20304;-67
2022/08/05 05:25:33;;;;;;;60.97;30.27;;;18.80;99.90;;;;;;5073939;28;20229;-67
2022/08/05 05:27:59;;;;;;;57.30;29.03;;;18.90;99.90;;;;;;5074752;28;20178;-67
2022/08/05 05:30:25;;;;;;;59.33;30.53;;;18.90;99.90;;;;;;5074514;28;20536;-67
2022/08/05 05:32:50;;;;;;;68.57;30.63;;;18.90;99.90;;;;;;5066134;28;20553;-67
2022/08/05 05:35:16;;;;;;;64.37;29.80;;;19.00;99.90;;;;;;5074139;28;20213;-66
2022/08/05 05:37:47;;;;;;;62.77;29.90;;;19.10;99.90;;;;;;5074365;28;20643;-67
2022/08/05 05:40:15;;;;;;;61.60;30.07;;;19.10;99.90;;;;;;5074209;28;20177;-66
2022/08/05 05:42:40;;;;;;;67.33;31.57;;;19.10;99.90;;;;;;5073680;28;20282;-66
2022/08/05 05:45:06;;;;;;;54.97;32.67;;;19.10;99.90;;;;;;5074013;28;20332;-66
2022/08/05 05:47:34;;;;;;;56.73;29.83;;;19.00;99.90;;;;;;5074111;28;20204;-66
2022/08/05 05:49:59;;;;;;;59.73;31.53;;;19.00;99.90;;;;;;5066733;28;20174;-66
2022/08/05 05:52:25;;;;;;;55.37;30.53;;;18.90;99.90;;;;;;5074028;28;20562;-66
2022/08/05 05:54:50;;;;;;;65.27;31.37;;;18.90;99.90;;;;;;5073213;28;20247;-65
2022/08/05 05:57:16;;;;;;;58.90;31.23;;;18.90;99.90;;;;;;5073988;28;20178;-67
2022/08/05 05:59:41;;;;;;;62.20;31.47;;;18.90;99.90;;;;;;5074329;28;20257;-66
2022/08/05 06:02:07;;;;;;;58.50;29.83;;;19.00;99.90;;;;;;5074574;28;20546;-65
2022/08/05 06:04:33;;;;;;;55.90;29.70;;;19.00;99.90;;;;;;5073845;28;20251;-65
2022/08/05 06:06:59;;;;;;;53.87;30.10;;;19.00;99.90;;;;;;5074954;28;20166;-66
2022/08/05 06:09:24;;;;;;;57.20;30.80;;;19.00;99.90;;;;;;5075515;28;20172;-66
2022/08/05 06:11:50;;;;;;;61.13;29.97;;;19.10;99.90;;;;;;5074674;28;20214;-66
2022/08/05 06:14:15;;;;;;;60.93;33.03;;;19.00;99.90;;;;;;5073657;28;20178;-66
2022/08/05 06:16:41;;;;;;;56.27;32.37;;;18.90;99.90;;;;;;5074423;28;20637;-66
2022/08/05 06:19:06;;;;;;;60.17;34.87;;;19.00;99.90;;;;;;5074097;28;20178;-66
2022/08/05 06:21:32;;;;;;;76.20;37.03;;;19.10;99.90;;;;;;5072675;28;20207;-66
2022/08/05 06:23:58;;;;;;;69.07;33.70;;;19.00;99.90;;;;;;5073059;28;20239;-67
2022/08/05 06:26:24;;;;;;;70.33;34.43;;;19.00;99.90;;;;;;5074419;28;20194;-67
2022/08/05 06:28:49;;;;;;;83.53;36.43;;;19.00;99.90;;;;;;5074510;28;20546;-66
2022/08/05 06:31:15;;;;;;;68.43;34.87;;;19.10;99.90;;;;;;5073027;28;20182;-68
2022/08/05 06:33:41;;;;;;;81.30;36.33;;;19.00;99.90;;;;;;5073524;28;20181;-67
2022/08/05 06:36:07;;;;;;;73.00;36.47;;;19.10;99.90;;;;;;5073414;28;20339;-67
2022/08/05 06:38:32;;;;;;;76.30;37.83;;;19.00;99.90;;;;;;5073616;28;20264;-66
2022/08/05 06:40:58;;;;;;;79.73;35.97;;;19.00;99.90;;;;;;5070209;28;20670;-66
2022/08/05 06:43:24;;;;;;;70.20;36.27;;;19.10;99.90;;;;;;5073802;28;20202;-66
2022/08/05 06:45:49;;;;;;;68.17;35.60;;;19.10;99.90;;;;;;5072854;28;20202;-67
2022/08/05 06:48:15;;;;;;;63.20;33.17;;;19.00;99.90;;;;;;5074243;28;20209;-67
2022/08/05 06:50:41;;;;;;;60.93;35.00;;;18.90;99.90;;;;;;5074129;28;20185;-67
2022/08/05 06:53:06;;;;;;;65.63;33.77;;;18.90;99.90;;;;;;5073016;28;20185;-66
2022/08/05 06:55:32;;;;;;;70.97;34.93;;;18.90;99.90;;;;;;5072551;28;20609;-67
2022/08/05 06:57:57;;;;;;;66.77;36.40;;;18.90;99.90;;;;;;5073037;28;20257;-66
2022/08/05 07:00:23;;;;;;;77.87;39.27;;;18.80;99.90;;;;;;5073061;28;20174;-67
2022/08/05 07:02:49;;;;;;;82.70;40.07;;;18.90;99.90;;;;;;5072706;28;20202;-67
2022/08/05 07:05:15;;;;;;;90.10;41.27;;;18.90;99.90;;;;;;5072808;28;20197;-67
2022/08/05 07:07:43;;;;;;;95.40;41.10;;;18.90;99.90;;;;;;5073606;28;20173;-67
2022/08/05 07:10:09;;;;;;;102.00;41.13;;;18.90;99.90;;;;;;5072009;28;20643;-66
2022/08/05 07:18:04;;;;;;;108.77;49.10;;;19.00;99.90;;;;;;5073387;28;20213;-67
2022/08/05 07:20:30;;;;;;;74.40;40.17;;;18.90;99.90;;;;;;5074112;28;20534;-67
2022/08/05 07:22:55;;;;;;;69.77;36.20;;;18.80;99.90;;;;;;5075343;28;20209;-66
2022/08/05 07:25:21;;;;;;;58.30;31.53;;;18.70;99.90;;;;;;5073563;28;20552;-66
2022/08/05 07:27:49;;;;;;;45.77;29.57;;;18.60;99.90;;;;;;5073415;28;20251;-68
2022/08/05 07:30:14;;;;;;;57.57;31.03;;;18.50;99.90;;;;;;5072757;28;20440;-66
2022/08/05 07:32:40;;;;;;;64.20;32.13;;;18.40;99.90;;;;;;5072874;28;20724;-66
2022/08/05 07:35:10;;;;;;;67.53;36.30;;;18.30;99.90;;;;;;5071802;28;20205;-66
2022/08/05 07:37:36;;;;;;;82.27;40.33;;;18.20;99.90;;;;;;5071341;28;20650;-66
2022/08/05 07:40:02;;;;;;;90.20;41.30;;;18.20;99.90;;;;;;5071932;28;20217;-65
2022/08/05 07:42:28;;;;;;;99.73;45.80;;;18.20;99.90;;;;;;5071323;28;20197;-66
2022/08/05 07:44:54;;;;;;;107.90;46.83;;;18.20;99.90;;;;;;5071591;28;20239;-65
2022/08/05 07:47:20;;;;;;;106.37;44.80;;;18.20;99.90;;;;;;5071781;28;20162;-66
2022/08/05 07:49:46;;;;;;;103.93;45.90;;;18.20;99.90;;;;;;5070548;28;21475;-65
2022/08/05 07:52:11;;;;;;;88.87;42.13;;;18.10;99.90;;;;;;5071363;28;20527;-65
2022/08/05 07:54:37;;;;;;;86.70;43.23;;;18.20;99.90;;;;;;5070129;28;20200;-65
2022/08/05 07:57:03;;;;;;;84.67;42.37;;;18.20;99.90;;;;;;5072267;28;20210;-67
2022/08/05 07:59:29;;;;;;;91.43;43.37;;;18.10;99.90;;;;;;5072514;28;20716;-67
2022/08/05 08:01:55;;;;;;;89.73;44.27;;;18.10;99.90;;;;;;5072114;28;20209;-66
2022/08/05 08:04:20;;;;;;;81.17;40.73;;;18.20;99.90;;;;;;5070928;28;20172;-66
2022/08/05 08:06:46;;;;;;;78.50;42.07;;;18.10;99.90;;;;;;5071667;28;20178;-66
2022/08/05 08:09:12;;;;;;;74.00;38.73;;;18.10;99.90;;;;;;5072095;28;20177;-67
2022/08/05 08:11:37;;;;;;;80.60;40.50;;;18.10;99.90;;;;;;5072001;28;20512;-66
2022/08/05 08:14:03;;;;;;;71.37;39.63;;;18.10;99.90;;;;;;5070725;28;20235;-65
2022/08/05 08:16:29;;;;;;;67.33;36.83;;;18.20;99.90;;;;;;5071189;28;20232;-66
2022/08/05 08:18:55;;;;;;;68.10;35.97;;;18.20;99.90;;;;;;5070955;28;20210;-66
2022/08/05 08:21:20;;;;;;;69.23;35.00;;;18.20;99.90;;;;;;5071702;28;20174;-66
2022/08/05 08:23:46;;;;;;;58.30;31.00;;;18.20;99.90;;;;;;5071145;28;20285;-67
2022/08/05 08:26:12;;;;;;;55.20;31.03;;;18.20;99.90;;;;;;5071175;28;20194;-67
2022/08/05 08:28:37;;;;;;;44.80;27.80;;;18.20;99.90;;;;;;5071134;28;20170;-66
2022/08/05 08:31:05;;;;;;;45.37;27.90;;;18.30;99.90;;;;;;5071380;28;20272;-66
2022/08/05 08:33:31;;;;;;;42.77;26.90;;;18.30;99.90;;;;;;5070612;28;20915;-65
2022/08/05 08:35:56;;;;;;;41.93;27.20;;;18.20;99.90;;;;;;5070784;28;20205;-65
2022/08/05 08:38:22;;;;;;;45.10;28.13;;;18.20;99.90;;;;;;5070745;28;20591;-65
2022/08/05 08:40:48;;;;;;;39.47;29.60;;;18.10;99.90;;;;;;5070171;28;20174;-65
2022/08/05 08:43:17;;;;;;;41.17;27.27;;;18.00;99.90;;;;;;5070677;28;20208;-66
2022/08/05 08:45:43;;;;;;;40.27;26.80;;;17.90;99.90;;;;;;5069427;28;20198;-66
2022/08/05 08:48:11;;;;;;;38.40;25.27;;;17.80;99.90;;;;;;5070213;28;20261;-65
2022/08/05 08:50:42;;;;;;;35.90;25.77;;;17.80;99.90;;;;;;5070863;28;20304;-66
2022/08/05 08:53:10;;;;;;;32.50;24.23;;;17.80;99.90;;;;;;5071353;28;20178;-66
2022/08/05 08:55:38;;;;;;;33.23;21.57;;;17.80;99.90;;;;;;5071046;28;20204;-65
2022/08/05 08:58:04;;;;;;;26.80;21.30;;;17.70;99.90;;;;;;5071569;28;20236;-65
2022/08/05 09:00:29;;;;;;;25.27;19.53;;;17.70;99.90;;;;;;5071356;28;20186;-66
2022/08/05 09:02:56;;;;;;;31.90;22.13;;;17.70;99.90;;;;;;5071213;28;20682;-66
2022/08/05 09:05:22;;;;;;;31.17;19.63;;;17.70;99.90;;;;;;5071390;28;20198;-65
2022/08/05 09:07:51;;;;;;;26.87;20.23;;;17.60;99.90;;;;;;5071461;28;20228;-65
2022/08/05 09:10:17;;;;;;;25.10;19.33;;;17.60;99.90;;;;;;5071305;28;20607;-65
2022/08/05 09:12:43;;;;;;;37.43;20.30;;;17.70;99.90;;;;;;5071030;28;20185;-65
2022/08/05 09:15:09;;;;;;;25.53;19.57;;;17.60;99.90;;;;;;5070894;28;20623;-65
2022/08/05 09:17:35;;;;;;;24.80;20.53;;;17.70;99.90;;;;;;5071360;28;20178;-65
2022/08/05 09:20:02;;;;;;;26.73;20.90;;;17.70;99.90;;;;;;5071164;28;20197;-65
2022/08/05 09:22:27;;;;;;;30.50;19.43;;;17.60;99.90;;;;;;5070857;28;20190;-65
2022/08/05 09:24:58;;;;;;;24.17;21.77;;;17.60;99.90;;;;;;5070753;28;20213;-65
2022/08/05 09:27:36;;;;;;;28.77;20.33;;;17.70;99.90;;;;;;5071163;28;20546;-65
2022/08/05 09:30:05;;;;;;;25.90;21.00;;;17.80;99.90;;;;;;5071254;28;20170;-66
2022/08/05 09:32:38;;;;;;;28.37;19.33;;;17.80;99.90;;;;;;5070849;28;20170;-65
2022/08/05 09:35:14;;;;;;;22.27;19.07;;;17.90;99.90;;;;;;5069324;28;20214;-66
2022/08/05 09:37:50;;;;;;;25.43;18.03;;;17.90;99.90;;;;;;5070911;28;20166;-65
2022/08/05 09:40:40;;;;;;;23.17;19.70;;;17.80;99.90;;;;;;5071024;28;20170;-65
2022/08/05 09:43:09;;;;;;;20.43;18.30;;;17.90;99.90;;;;;;5070933;28;20209;-65
2022/08/05 09:45:43;;;;;;;22.07;19.80;;;17.90;99.90;;;;;;5070511;28;20195;-65
2022/08/05 09:48:29;;;;;;;24.27;18.07;;;18.00;99.90;;;;;;5070836;28;20178;-65
2022/08/05 09:50:57;;;;;;;23.37;19.67;;;18.10;99.90;;;;;;5070775;28;20170;-65
2022/08/05 09:53:24;;;;;;;18.20;16.40;;;18.30;99.90;;;;;;5070557;28;20174;-66
2022/08/05 09:55:52;;;;;;;20.00;17.80;;;18.30;99.90;;;;;;5070667;28;20810;-67
2022/08/05 09:58:17;;;;;;;22.47;16.73;;;18.30;99.90;;;;;;5072543;28;20171;-64
2022/08/05 10:00:53;;;;;;;22.53;15.70;;;18.40;99.90;;;;;;5074544;28;20208;-65
2022/08/05 10:03:20;;;;;;;18.17;12.73;;;18.30;99.90;;;;;;5072028;28;20783;-65
2022/08/05 10:05:46;;;;;;;16.37;14.30;;;18.20;99.90;;;;;;5074173;28;20201;-65
2022/08/05 10:08:12;;;;;;;16.67;14.80;;;18.20;99.90;;;;;;5074299;28;20166;-65
2022/08/05 10:10:44;;;;;;;15.90;13.77;;;18.30;99.90;;;;;;5073974;28;20209;-64
2022/08/05 10:13:10;;;;;;;16.87;13.30;;;18.40;99.90;;;;;;5074159;28;20518;-65
2022/08/05 10:15:38;;;;;;;17.37;13.70;;;18.50;99.90;;;;;;5073694;28;20194;-65
2022/08/05 10:18:15;;;;;;;13.40;12.00;;;18.70;99.90;;;;;;5074167;28;20362;-66
2022/08/05 10:20:55;;;;;;;13.00;11.90;;;18.90;99.90;;;;;;5072610;28;20542;-65
2022/08/05 10:23:34;;;;;;;14.77;12.77;;;19.00;99.90;;;;;;5073769;28;20276;-64
2022/08/05 10:26:05;;;;;;;13.80;12.03;;;19.30;99.90;;;;;;5073916;28;20662;-66
2022/08/05 10:28:30;;;;;;;12.10;10.87;;;19.70;99.90;;;;;;5073650;28;20174;-65
2022/08/05 10:30:57;;;;;;;11.27;9.83;;;20.00;99.90;;;;;;5073762;28;20178;-65
2022/08/05 10:33:25;;;;;;;12.20;8.80;;;20.40;99.90;;;;;;5073697;28;20200;-65
2022/08/05 10:35:51;;;;;;;10.20;9.37;;;20.80;99.90;;;;;;5073288;28;20317;-66
2022/08/05 10:38:22;;;;;;;8.30;7.50;;;21.20;99.90;;;;;;5055574;28;20187;-66
2022/08/05 10:40:50;;;;;;;7.35;6.68;;;21.60;99.90;;;;;;5058661;28;20261;-65
2022/08/05 10:43:25;;;;;;;11.32;6.72;;;21.90;99.90;;;;;;5072020;28;20210;-66
2022/08/05 10:46:02;;;;;;;6.53;4.97;;;22.20;99.90;;;;;;5072066;28;20210;-65
2022/08/05 10:48:37;;;;;;;6.22;5.30;;;22.40;99.90;;;;;;5064210;28;20178;-66
2022/08/05 10:51:17;;;;;;;5.90;5.45;;;22.50;99.90;;;;;;5073064;28;20165;-64
2022/08/05 10:53:58;;;;;;;11.75;7.15;;;22.80;99.90;;;;;;5072068;28;20244;-66
2022/08/05 10:56:27;;;;;;;6.93;6.22;;;22.90;99.90;;;;;;5072306;28;20193;-64
2022/08/05 10:58:52;;;;;;;7.70;6.53;;;23.00;99.90;;;;;;5073063;28;20174;-66
2022/08/05 11:01:28;;;;;;;8.75;7.88;;;23.00;99.90;;;;;;5073410;28;20174;-65
2022/08/05 11:04:04;;;;;;;8.20;7.38;;;23.20;99.90;;;;;;5072563;28;20204;-66
2022/08/05 11:06:30;;;;;;;9.15;8.07;;;23.40;99.90;;;;;;5072433;28;20174;-66
2022/08/05 11:09:47;;;;;;;9.85;8.90;;;23.20;99.90;;;;;;5072628;28;20223;-65
2022/08/05 11:12:33;;;;;;;10.48;9.45;;;23.00;99.90;;;;;;5039126;28;20215;-64
2022/08/05 11:15:05;;;;;;;9.40;7.95;;;23.00;99.90;;;;;;5071918;28;20285;-64
2022/08/05 11:17:33;;;;;;;11.18;8.93;;;23.30;99.90;;;;;;5072236;28;20178;-64
2022/08/05 11:20:00;;;;;;;8.88;7.97;;;23.30;99.90;;;;;;5072320;28;20283;-65
2022/08/05 11:22:51;;;;;;;11.48;8.82;;;23.40;99.90;;;;;;5071629;28;20209;-64
2022/08/05 11:25:28;;;;;;;13.07;11.98;;;23.70;99.90;;;;;;5071844;28;20190;-65
2022/08/05 11:27:55;;;;;;;11.50;10.35;;;24.00;99.90;;;;;;5070088;28;20703;-66
2022/08/05 11:30:21;;;;;;;12.80;11.10;;;24.10;99.90;;;;;;5071868;28;20249;-65
2022/08/05 11:32:47;;;;;;;10.38;8.35;;;24.30;99.90;;;;;;5071746;28;20265;-65
2022/08/05 11:36:07;;;;;;;11.00;9.18;;;24.50;99.90;;;;;;5071542;28;20239;-66
2022/08/05 11:38:38;;;;;;;9.07;7.57;;;24.80;99.90;;;;;;5065430;28;20190;-67
2022/08/05 11:41:05;;;;;;;10.50;9.35;;;25.20;99.90;;;;;;5067531;28;20240;-65
2022/08/05 11:43:32;;;;;;;12.45;8.40;;;25.10;99.90;;;;;;5071182;28;20301;-65
2022/08/05 11:45:58;;;;;;;9.20;7.45;;;24.90;99.90;;;;;;5070477;28;20197;-64
2022/08/05 11:48:25;;;;;;;8.20;7.50;;;24.90;99.90;;;;;;5071571;28;20257;-66
2022/08/05 11:50:51;;;;;;;7.63;6.93;;;24.90;99.90;;;;;;5071589;28;20182;-66
2022/08/05 11:53:18;;;;;;;9.27;8.07;;;25.20;99.90;;;;;;5071725;28;20643;-65
2022/08/05 11:56:01;;;;;;;9.45;7.53;;;25.10;99.90;;;;;;5063441;28;20206;-65
2022/08/05 11:58:34;;;;;;;8.18;6.97;;;24.90;99.90;;;;;;5071411;28;20174;-65
2022/08/05 12:01:11;;;;;;;6.85;6.28;;;25.10;99.90;;;;;;5071543;28;20327;-64
2022/08/05 12:03:50;;;;;;;8.73;7.78;;;25.40;99.90;;;;;;5071192;28;20594;-66
2022/08/05 12:06:17;;;;;;;8.65;7.80;;;25.80;99.90;;;;;;5071447;28;20194;-64
2022/08/05 12:08:46;;;;;;;10.20;7.15;;;26.20;99.90;;;;;;5070317;28;20205;-65
2022/08/05 12:11:23;;;;;;;9.55;6.15;;;26.70;99.90;;;;;;5071423;28;20175;-64
2022/08/05 12:14:01;;;;;;;7.15;6.45;;;26.50;99.90;;;;;;5070578;28;20186;-64
2022/08/05 12:16:53;;;;;;;6.15;5.65;;;26.50;99.90;;;;;;5070902;28;20205;-65
2022/08/05 12:19:21;;;;;;;7.82;6.35;;;26.40;99.90;;;;;;5070122;28;20232;-64
2022/08/05 12:21:49;;;;;;;7.38;6.07;;;26.20;99.90;;;;;;5070465;28;20174;-64
2022/08/05 12:24:17;;;;;;;9.90;6.40;;;26.40;99.90;;;;;;5071022;28;20539;-66
2022/08/05 12:26:43;;;;;;;7.45;6.75;;;26.20;99.90;;;;;;5070684;28;20174;-66
2022/08/05 12:29:15;;;;;;;10.52;6.82;;;26.00;99.90;;;;;;5071668;28;20651;-65
2022/08/05 12:31:50;;;;;;;7.13;5.28;;;25.90;99.90;;;;;;5070561;28;20538;-65
2022/08/05 12:34:17;;;;;;;6.45;5.80;;;25.70;99.90;;;;;;5070758;28;20169;-64
2022/08/05 12:36:45;;;;;;;5.72;5.20;;;25.60;99.90;;;;;;5070729;28;20194;-65
2022/08/05 12:39:11;;;;;;;5.38;4.45;;;25.50;99.90;;;;;;5071070;28;20255;-64
2022/08/05 12:41:38;;;;;;;5.10;4.75;;;25.30;99.90;;;;;;5070807;28;20178;-65
2022/08/05 12:44:05;;;;;;;6.35;4.43;;;25.70;99.90;;;;;;5069537;28;20205;-65